Flight Track Log - Related Links

Times and Time Zones

All times are in EDT time to prevent confusion due to time zone crossing. See the DAL268 flight status page for this flight to view local times or setup timezone preferences in your user account.

Time Position Orientation Groundspeed Altitude Reporting Facility
EDT Latitude Longitude Course Direction KTS MPH feet Rate Location/Type
Sun 02:37:42 PM 37.6060 -122.3820 142° Southeast  Level FlightAware ADS-B
Sun 02:40:11 PM 37.6241 -122.3690 28° Northeast 168 193 78 Level FlightAware ADS-B
Sun 02:40:16 PM 37.6278 -122.3670 23° Northeast 169 194 200 2,727 Climbing FlightAware ADS-B
Sun 02:40:22 PM 37.6316 -122.3640 32° Northeast 171 197 500 2,667 Climbing FlightAware ADS-B
Sun 02:40:25 PM 37.6336 -122.3620 38° Northeast 170 196 600 2,182 Climbing FlightAware ADS-B
Sun 02:40:33 PM 37.6383 -122.3560 45° Northeast 174 200 900 2,609 Climbing FlightAware ADS-B
Sun 02:40:48 PM 37.6467 -122.3440 49° Northeast 177 204 1,600 2,308 Climbing FlightAware ADS-B
Sun 02:40:59 PM 37.6528 -122.3350 49° Northeast 192 221 1,900 1,385 Climbing FlightAware ADS-B
Sun 02:41:14 PM 37.6624 -122.3220 47° Northeast 216 249 2,200 1,241 Climbing FlightAware ADS-B
Sun 02:41:28 PM 37.6720 -122.3090 47° Northeast 232 267 2,500 1,429 Climbing FlightAware ADS-B
Sun 02:41:35 PM 37.6771 -122.3020 47° Northeast 240 276 2,700 1,636 Climbing FlightAware ADS-B
Sun 02:41:50 PM 37.6892 -122.2860 46° Northeast 257 296 3,100 1,800 Climbing FlightAware ADS-B
Sun 02:42:05 PM 37.7028 -122.2680 46° Northeast 274 315 3,600 2,323 Climbing FlightAware ADS-B
Sun 02:42:21 PM 37.7170 -122.2500 45° Northeast 284 327 4,300 2,813 Climbing FlightAware ADS-B
Sun 02:42:37 PM 37.7320 -122.2310 45° Northeast 288 331 5,100 3,143 Climbing FlightAware ADS-B
Sun 02:43:03 PM 37.7570 -122.2000 44° Northeast 289 333 6,500 2,870 Climbing FlightAware ADS-B
Sun 02:43:23 PM 37.7779 -122.1790 38° Northeast 299 344 7,300 2,824 Climbing FlightAware ADS-B
Sun 02:43:37 PM 37.7944 -122.1650 34° Northeast 299 344 8,100 3,130 Climbing FlightAware ADS-B
Sun 02:43:46 PM 37.8044 -122.1560 35° Northeast 301 346 8,500 2,250 Climbing FlightAware ADS-B
Sun 02:44:01 PM 37.8210 -122.1400 37° Northeast 308 354 9,000 2,129 Climbing FlightAware ADS-B
Sun 02:44:17 PM 37.8386 -122.1210 40° Northeast 315 362 9,600 2,182 Climbing FlightAware ADS-B
Sun 02:44:23 PM 37.8457 -122.1130 42° Northeast 319 367 9,800 1,622 Climbing FlightAware ADS-B
Sun 02:44:54 PM 37.8829 -122.0760 38° Northeast 345 397 10,600 1,258 Climbing FlightAware ADS-B
Sun 02:45:25 PM 37.9246 -122.0370 36° Northeast 376 433 11,100 1,475 Climbing FlightAware ADS-B
Sun 02:45:55 PM 37.9686 -121.9990 34° Northeast 388 447 12,100 1,700 Climbing FlightAware ADS-B
Sun 02:46:25 PM 38.0142 -121.9580 35° Northeast 408 470 12,800 1,869 Climbing FlightAware ADS-B
Sun 02:46:56 PM 38.0604 -121.9140 37° Northeast 409 471 14,000 2,382 Climbing FlightAware ADS-B
Sun 02:47:33 PM 38.1160 -121.8610 37° Northeast 411 473 15,500 2,108 Climbing FlightAware ADS-B
Sun 02:48:10 PM 38.1730 -121.8070 37° Northeast 421 484 16,600 1,775 Climbing FlightAware ADS-B
Sun 02:48:44 PM 38.2270 -121.7560 37° Northeast 428 493 17,600 1,775 Climbing FlightAware ADS-B
Sun 02:49:21 PM 38.2860 -121.7010 36° Northeast 436 502 18,700 1,791 Climbing FlightAware ADS-B
Sun 02:49:51 PM 38.3340 -121.6550 37° Northeast 441 507 19,600 1,826 Climbing FlightAware ADS-B
Sun 02:50:30 PM 38.4000 -121.5930 36° Northeast 451 519 20,800 1,775 Climbing FlightAware ADS-B
Sun 02:51:02 PM 38.4490 -121.5370 42° Northeast 454 522 21,700 1,565 Climbing FlightAware ADS-B
Sun 02:51:39 PM 38.4990 -121.4590 51° Northeast 463 533 22,600 1,412 Climbing FlightAware ADS-B
Sun 02:52:10 PM 38.5390 -121.3890 54° Northeast 471 542 23,300 1,333 Climbing FlightAware ADS-B
Sun 02:52:51 PM 38.5920 -121.2980 53° Northeast 481 554 24,200 1,417 Climbing FlightAware ADS-B
Sun 02:53:22 PM 38.6330 -121.2260 54° Northeast 487 560 25,000 1,478 Climbing FlightAware ADS-B
Sun 02:54:00 PM 38.6840 -121.1380 53° Northeast 492 566 25,900 1,417 Climbing FlightAware ADS-B
Sun 02:54:34 PM 38.7310 -121.0570 53° Northeast 497 572 26,700 1,412 Climbing FlightAware ADS-B
Sun 02:55:08 PM 38.7770 -120.9770 54° Northeast 499 574 27,500 1,324 Climbing FlightAware ADS-B
Sun 02:55:42 PM 38.8240 -120.8950 54° Northeast 503 579 28,200 1,417 Climbing FlightAware ADS-B
Sun 02:56:20 PM 38.8770 -120.8030 53° Northeast 501 577 29,200 1,543 Climbing FlightAware ADS-B
Sun 02:56:52 PM 38.9210 -120.7280 53° Northeast 499 574 30,000 1,433 Climbing FlightAware ADS-B
Sun 02:57:27 PM 38.9699 -120.6438 53° Northeast 498 573 30,800 1,378 Climbing FlightAware ADS-B
Sun 02:58:06 PM 39.0217 -120.5541 53° Northeast 498 573 31,700 1,247 Climbing FlightAware ADS-B
Sun 02:58:44 PM 39.0756 -120.4603 53° Northeast 500 575 32,400 1,235 Climbing FlightAware ADS-B
Sun 02:59:14 PM 39.1159 -120.3899 54° Northeast 498 573 33,100 1,400 Climbing FlightAware ADS-B
Sun 02:59:44 PM 39.1570 -120.3180 54° Northeast 494 568 33,800 1,355 Climbing FlightAware ADS-B
Sun 03:00:16 PM 39.1988 -120.2448 54° Northeast 489 563 34,500 1,161 Climbing FlightAware ADS-B
Sun 03:00:46 PM 39.2404 -120.1716 54° Northeast 490 564 35,000 423 Climbing FlightAware ADS-B
Sun 03:01:27 PM 39.2940 -120.0771 54° Northeast 485 558 35,000  Level FlightAware ADS-B
Sun 03:01:57 PM 39.3344 -120.0058 54° Northeast 484 557 35,000  Level FlightAware ADS-B
Sun 03:02:40 PM 39.3904 -119.9066 54° Northeast 486 559 35,000  Level FlightAware ADS-B
Sun 03:03:10 PM 39.4299 -119.8365 54° Northeast 486 559 35,000  Level FlightAware ADS-B
Sun 03:03:40 PM 39.4694 -119.7662 54° Northeast 487 560 35,000  Level FlightAware ADS-B
Sun 03:04:17 PM 39.5193 -119.6773 54° Northeast 488 562 35,000  Level FlightAware ADS-B
Sun 03:04:47 PM 39.5572 -119.6095 54° Northeast 488 562 35,000  Level FlightAware ADS-B
Sun 03:05:23 PM 39.6061 -119.5220 54° Northeast 489 563 35,000  Level FlightAware ADS-B
Sun 03:05:53 PM 39.6464 -119.4497 54° Northeast 489 563 35,000  Level FlightAware ADS-B
Sun 03:06:23 PM 39.6852 -119.3799 54° Northeast 489 563 35,000  Level FlightAware ADS-B
Sun 03:06:57 PM 39.7298 -119.2995 54° Northeast 489 563 35,000  Level FlightAware ADS-B
Sun 03:07:27 PM 39.7700 -119.2269 54° Northeast 489 563 35,000  Level FlightAware ADS-B
Sun 03:07:57 PM 39.8084 -119.1573 54° Northeast 489 563 35,000  Level FlightAware ADS-B
Sun 03:08:29 PM 39.8512 -119.0796 54° Northeast 488 562 35,000  Level FlightAware ADS-B
Sun 03:08:59 PM 39.8904 -119.0083 54° Northeast 488 562 35,000  Level FlightAware ADS-B
Sun 03:09:41 PM 39.9452 -118.9082 54° Northeast 486 559 35,000  Level FlightAware ADS-B
Sun 03:10:12 PM 39.9853 -118.8349 54° Northeast 486 559 35,000  Level FlightAware ADS-B
Sun 03:10:53 PM 40.0393 -118.7358 55° Northeast 485 558 35,000  Level FlightAware ADS-B
Sun 03:11:23 PM 40.0767 -118.6669 55° Northeast 485 558 35,000  Level FlightAware ADS-B
Sun 03:11:53 PM 40.1150 -118.5912 56° Northeast 484 557 35,000  Level FlightAware ADS-B
Sun 03:12:26 PM 40.1450 -118.5067 65° Northeast 483 556 35,000  Level FlightAware ADS-B
Sun 03:12:56 PM 40.1689 -118.4221 70° East 483 556 35,000  Level FlightAware ADS-B
Sun 03:13:31 PM 40.1950 -118.3280 70° East 483 556 35,000  Level FlightAware ADS-B
Sun 03:13:39 PM 40.1994 -118.3098 72° East 484 557 35,000  Level FlightAware ADS-B
Sun 03:14:09 PM 40.2230 -118.2224 70° East 484 557 35,000  Level FlightAware ADS-B
Sun 03:14:41 PM 40.2468 -118.1346 70° East 484 557 35,000  Level FlightAware ADS-B
Sun 03:15:12 PM 40.2686 -118.0543 70° East 484 557 35,000  Level FlightAware ADS-B
Sun 03:16:05 PM 40.3098 -117.9020 70° East 484 557 35,000  Level FlightAware ADS-B
Sun 03:16:49 PM 40.3250 -117.8570 66° East 483 556 35,000  Level FlightAware ADS-B
Sun 03:17:26 PM 40.3490 -117.7700 70° East 483 556 35,000  Level FlightAware ADS-B
Sun 03:17:37 PM 40.3775 -117.6501 73° East 484 557 35,000  Level FlightAware ADS-B
Sun 03:18:07 PM 40.3981 -117.5727 71° East 485 558 35,000  Level FlightAware ADS-B
Sun 03:18:40 PM 40.3970 -117.5970 266° West 483 556 35,000  Level FlightAware ADS-B
Sun 03:19:16 PM 40.4200 -117.5120 70° East 483 556 35,000  Level FlightAware ADS-B
Sun 03:19:55 PM 40.4460 -117.4210 69° East 483 556 35,000  Level FlightAware ADS-B
Sun 03:20:31 PM 40.4690 -117.3370 70° East 483 556 35,000  Level FlightAware ADS-B
Sun 03:21:08 PM 40.4930 -117.2500 70° East 483 556 35,000  Level FlightAware ADS-B
Sun 03:21:45 PM 40.5170 -117.1630 70° East 483 556 35,000  Level FlightAware ADS-B
Sun 03:22:21 PM 40.5400 -117.0780 70° East 483 556 35,000  Level FlightAware ADS-B
Sun 03:22:56 PM 40.5630 -116.9960 70° East 483 556 35,000  Level FlightAware ADS-B
Sun 03:23:32 PM 40.5860 -116.9110 70° East 483 556 35,000  Level FlightAware ADS-B
Sun 03:27:00 PM 40.7973 -116.0760 71° East 489 563 35,000  Level FlightAware ADS-B
Sun 03:27:31 PM 40.8199 -115.9900 71° East 489 563 35,000  Level FlightAware ADS-B
Sun 03:28:18 PM 40.8554 -115.8550 71° East 489 563 35,000  Level FlightAware ADS-B
Sun 03:28:49 PM 40.8778 -115.7700 71° East 489 563 35,000  Level FlightAware ADS-B
Sun 03:29:28 PM 40.9063 -115.6610 71° East 489 563 35,000  Level FlightAware ADS-B
Sun 03:30:05 PM 40.9341 -115.5540 71° East 489 563 35,000  Level FlightAware ADS-B
Sun 03:31:38 PM 41.0011 -115.2940 71° East 487 560 35,000  Level FlightAware ADS-B
Sun 03:32:08 PM 41.0228 -115.2100 71° East 486 559 35,000  Level FlightAware ADS-B
Sun 03:32:39 PM 41.0449 -115.1230 71° East 486 559 35,000  Level FlightAware ADS-B
Sun 03:33:12 PM 41.0684 -115.0300 71° East 485 558 35,000  Level FlightAware ADS-B
Sun 03:33:44 PM 41.0910 -114.9410 71° East 484 557 35,000  Level FlightAware ADS-B
Sun 03:34:14 PM 41.1124 -114.8570 71° East 483 556 35,000  Level FlightAware ADS-B
Sun 03:34:54 PM 41.1400 -114.7470 72° East 481 554 35,000  Level FlightAware ADS-B
Sun 03:35:01 PM 41.1458 -114.7230 72° East 482 555 35,000  Level FlightAware ADS-B
Sun 03:35:35 PM 41.1693 -114.6300 71° East 480 552 35,000  Level FlightAware ADS-B
Sun 03:36:05 PM 41.1903 -114.5450 72° East 480 552 35,000  Level FlightAware ADS-B
Sun 03:36:36 PM 41.2117 -114.4590 72° East 480 552 35,000  Level FlightAware ADS-B
Sun 03:37:06 PM 41.2326 -114.3740 72° East 481 554 35,000  Level FlightAware ADS-B
Sun 03:37:37 PM 41.2535 -114.2890 72° East 481 554 35,000  Level FlightAware ADS-B
Sun 03:38:08 PM 41.2754 -114.2000 72° East 482 555 35,000  Level FlightAware ADS-B
Sun 03:38:41 PM 41.2978 -114.1090 72° East 483 556 35,000  Level FlightAware ADS-B
Sun 03:39:12 PM 41.3188 -114.0230 72° East 482 555 35,000  Level FlightAware ADS-B
Sun 03:39:42 PM 41.3398 -113.9360 72° East 483 556 35,000  Level FlightAware ADS-B
Sun 03:40:05 PM 41.3547 -113.8720 73° East 484 557 35,000  Level FlightAware ADS-B
Sun 03:40:26 PM 41.3658 -113.8120 76° East 485 558 35,000  Level FlightAware ADS-B
Sun 03:40:56 PM 41.3785 -113.7240 79° East 485 558 35,000  Level FlightAware ADS-B
Sun 03:41:26 PM 41.3901 -113.6340 80° East 487 560 35,000  Level FlightAware ADS-B
Sun 03:42:02 PM 41.4032 -113.5300 80° East 487 560 35,000  Level FlightAware ADS-B
Sun 03:42:32 PM 41.4143 -113.4410 81° East 487 560 35,000  Level FlightAware ADS-B
Sun 03:43:03 PM 41.4260 -113.3480 80° East 487 560 35,000  Level FlightAware ADS-B
Sun 03:43:42 PM 41.4402 -113.2340 81° East 488 562 35,000  Level FlightAware ADS-B
Sun 03:44:13 PM 41.4515 -113.1440 80° East 487 560 35,000  Level FlightAware ADS-B
Sun 03:44:43 PM 41.4626 -113.0530 81° East 487 560 35,000  Level FlightAware ADS-B
Sun 03:45:16 PM 41.4745 -112.9570 81° East 487 560 35,000  Level FlightAware ADS-B
Sun 03:45:48 PM 41.4863 -112.8600 81° East 487 560 35,000  Level FlightAware ADS-B
Sun 03:46:22 PM 41.4982 -112.7610 81° East 487 560 35,000  Level FlightAware ADS-B
Sun 03:46:53 PM 41.5092 -112.6700 81° East 487 560 35,000  Level FlightAware ADS-B
Sun 03:47:24 PM 41.5203 -112.5770 81° East 487 560 35,000  Level FlightAware ADS-B
Sun 03:47:54 PM 41.5309 -112.4870 81° East 487 560 35,000  Level FlightAware ADS-B
Sun 03:48:30 PM 41.5424 -112.3820 82° East 488 562 35,000  Level FlightAware ADS-B
Sun 03:49:03 PM 41.5526 -112.2840 82° East 487 560 35,000  Level FlightAware ADS-B
Sun 03:49:33 PM 41.5618 -112.1940 82° East 488 562 35,000  Level FlightAware ADS-B
Sun 03:50:08 PM 41.5726 -112.0890 82° East 488 562 35,000  Level FlightAware ADS-B
Sun 03:50:38 PM 41.5819 -112.0000 82° East 487 560 35,000  Level FlightAware ADS-B
Sun 03:51:10 PM 41.5915 -111.9060 82° East 487 560 35,000  Level FlightAware ADS-B
Sun 03:51:42 PM 41.6011 -111.8120 82° East 487 560 35,000  Level FlightAware ADS-B
Sun 03:52:15 PM 41.6110 -111.7120 82° East 487 560 35,000  Level FlightAware ADS-B
Sun 03:52:45 PM 41.6200 -111.6230 82° East 488 562 35,000  Level FlightAware ADS-B
Sun 03:53:16 PM 41.6290 -111.5320 82° East 487 560 35,000  Level FlightAware ADS-B
Sun 03:53:46 PM 41.6378 -111.4420 83° East 488 562 35,000  Level FlightAware ADS-B
Sun 03:54:16 PM 41.6466 -111.3520 83° East 488 562 35,000  Level FlightAware ADS-B
Sun 03:54:46 PM 41.6552 -111.2620 83° East 488 562 35,000  Level FlightAware ADS-B
Sun 03:55:17 PM 41.6640 -111.1700 83° East 489 563 35,000  Level FlightAware ADS-B
Sun 03:55:47 PM 41.6726 -111.0790 83° East 489 563 35,000  Level FlightAware ADS-B
Sun 03:56:18 PM 41.6811 -110.9890 83° East 489 563 35,000  Level FlightAware ADS-B
Sun 03:56:48 PM 41.6895 -110.8980 83° East 489 563 35,000  Level FlightAware ADS-B
Sun 03:57:19 PM 41.6980 -110.8070 83° East 489 563 35,000  Level FlightAware ADS-B
Sun 03:57:51 PM 41.7070 -110.7080 83° East 490 564 35,000  Level FlightAware ADS-B
Sun 03:58:46 PM 41.7200 -110.6270 78° East 488 562 35,000  Level FlightAware ADS-B
Sun 03:59:22 PM 41.7290 -110.5350 83° East 488 562 35,000  Level FlightAware ADS-B
Sun 03:59:56 PM 41.7380 -110.4490 82° East 488 562 35,000  Level FlightAware ADS-B
Sun 04:00:30 PM 41.7480 -110.3620 81° East 488 562 35,000  Level FlightAware ADS-B
Sun 04:01:07 PM 41.7570 -110.2680 83° East 488 562 35,000  Level FlightAware ADS-B
Sun 04:01:45 PM 41.7680 -110.1710 81° East 488 562 35,000  Level FlightAware ADS-B
Sun 04:02:21 PM 41.7770 -110.0790 82° East 488 562 35,000  Level FlightAware ADS-B
Sun 04:02:59 PM 41.7870 -109.9820 82° East 488 562 35,000  Level FlightAware ADS-B
Sun 04:03:35 PM 41.7970 -109.8910 82° East 488 562 35,000  Level FlightAware ADS-B
Sun 04:04:12 PM 41.8070 -109.7960 82° East 488 562 35,000  Level FlightAware ADS-B
Sun 04:04:43 PM 41.8120 -109.4780 89° East 485 558 35,000  Level FlightAware ADS-B
Sun 04:05:19 PM 41.8210 -109.3700 84° East 485 558 35,000  Level FlightAware ADS-B
Sun 04:05:54 PM 41.8290 -109.2650 84° East 485 558 35,000  Level FlightAware ADS-B
Sun 04:06:27 PM 41.8360 -109.1720 84° East 484 557 35,000  Level FlightAware ADS-B
Sun 04:07:05 PM 41.8440 -109.0750 84° East 484 557 35,000  Level FlightAware ADS-B
Sun 04:07:39 PM 41.8510 -108.9890 84° East 484 557 35,000  Level FlightAware ADS-B
Sun 04:08:16 PM 41.8580 -108.8950 84° East 484 557 35,000  Level FlightAware ADS-B
Sun 04:08:51 PM 41.8690 -108.7410 84° East 481 554 35,000  Level FlightAware ADS-B
Sun 04:09:25 PM 41.8760 -108.6410 85° East 481 554 35,000  Level FlightAware ADS-B
Sun 04:09:57 PM 41.8830 -108.5440 84° East 480 552 35,000  Level FlightAware ADS-B
Sun 04:10:33 PM 41.8900 -108.4380 85° East 480 552 35,000  Level FlightAware ADS-B
Sun 04:11:05 PM 41.8970 -108.3510 84° East 480 552 35,000  Level FlightAware ADS-B
Sun 04:12:07 PM 41.9090 -108.1750 85° East 480 552 35,000  Level FlightAware ADS-B
Sun 04:12:47 PM 41.9170 -108.0740 84° East 480 552 35,000  Level FlightAware ADS-B
Sun 04:13:24 PM 41.9240 -107.9810 84° East 480 552 35,000  Level FlightAware ADS-B
Sun 04:14:00 PM 41.9310 -107.8900 84° East 480 552 35,000  Level FlightAware ADS-B
Sun 04:14:36 PM 41.9380 -107.7990 84° East 480 552 35,000  Level FlightAware ADS-B
Sun 04:15:12 PM 41.9450 -107.7080 84° East 480 552 35,000  Level FlightAware ADS-B
Sun 04:15:49 PM 41.9520 -107.6150 84° East 480 552 35,000  Level FlightAware ADS-B
Sun 04:16:25 PM 41.9600 -107.5240 83° East 480 552 35,000  Level FlightAware ADS-B
Sun 04:17:01 PM 41.9670 -107.4330 84° East 480 552 35,000  Level FlightAware ADS-B
Sun 04:17:37 PM 41.9740 -107.3420 84° East 480 552 35,000  Level FlightAware ADS-B
Sun 04:18:13 PM 41.9810 -107.2520 84° East 480 552 35,000  Level FlightAware ADS-B
Sun 04:18:49 PM 41.9880 -107.1610 84° East 480 552 35,000  Level FlightAware ADS-B
Sun 04:19:25 PM 41.9950 -107.0700 84° East 480 552 35,000  Level FlightAware ADS-B
Sun 04:20:01 PM 42.0020 -106.9790 84° East 480 552 35,000  Level FlightAware ADS-B
Sun 04:20:37 PM 42.0090 -106.8880 84° East 480 552 35,000  Level FlightAware ADS-B
Sun 04:21:14 PM 42.0160 -106.7940 84° East 480 552 35,000  Level FlightAware ADS-B
Sun 04:21:50 PM 42.0240 -106.7030 83° East 480 552 35,000  Level FlightAware ADS-B
Sun 04:22:23 PM 42.0200 -106.3360 91° East 484 557 35,000  Level FlightAware ADS-B
Sun 04:23:09 PM 42.0270 -106.1950 86° East 483 556 35,000  Level FlightAware ADS-B
Sun 04:23:45 PM 42.0320 -106.0870 86° East 482 555 35,000  Level FlightAware ADS-B
Sun 04:24:17 PM 42.0370 -105.9920 86° East 484 557 35,000  Level FlightAware ADS-B
Sun 04:24:55 PM 42.0420 -105.8830 86° East 484 557 35,000  Level FlightAware ADS-B
Sun 04:25:43 PM 42.0490 -105.7510 86° East 483 556 35,000  Level FlightAware ADS-B
Sun 04:26:31 PM 42.0560 -105.6060 86° East 483 556 35,000  Level FlightAware ADS-B
Sun 04:27:07 PM 42.0600 -105.5150 87° East 483 556 35,000  Level FlightAware ADS-B
Sun 04:27:40 PM 42.0650 -105.3840 87° East 481 554 35,000  Level FlightAware ADS-B
Sun 04:28:18 PM 42.0700 -105.2700 87° East 481 554 35,000  Level FlightAware ADS-B
Sun 04:28:52 PM 42.0750 -105.1740 86° East 480 552 35,000  Level FlightAware ADS-B
Sun 04:29:26 PM 42.0820 -105.0850 84° East 479 551 35,000  Level FlightAware ADS-B
Sun 04:30:02 PM 42.0890 -104.9940 84° East 479 551 35,000  Level FlightAware ADS-B
Sun 04:30:39 PM 42.0960 -104.9010 84° East 479 551 35,000  Level FlightAware ADS-B
Sun 04:31:15 PM 42.1030 -104.8100 84° East 479 551 35,000  Level FlightAware ADS-B
Sun 04:31:51 PM 42.1100 -104.7190 84° East 479 551 35,000  Level FlightAware ADS-B
Sun 04:32:39 PM 42.1310 -104.5150 82° East 480 552 35,000  Level FlightAware ADS-B
Sun 04:33:15 PM 42.1400 -104.4240 82° East 480 552 35,000  Level FlightAware ADS-B
Sun 04:33:51 PM 42.1480 -104.3330 83° East 480 552 35,000  Level FlightAware ADS-B
Sun 04:34:28 PM 42.1560 -104.2400 83° East 480 552 35,000  Level FlightAware ADS-B
Sun 04:35:05 PM 42.1650 -104.1460 83° East 480 552 35,000  Level FlightAware ADS-B
Sun 04:35:40 PM 42.1730 -104.0580 83° East 480 552 35,000  Level FlightAware ADS-B
Sun 04:36:17 PM 42.1820 -103.9640 83° East 480 552 35,000  Level FlightAware ADS-B
Sun 04:36:54 PM 42.1900 -103.8710 83° East 480 552 35,000  Level FlightAware ADS-B
Sun 04:37:30 PM 42.1980 -103.7800 83° East 480 552 35,000  Level FlightAware ADS-B
Sun 04:38:06 PM 42.2070 -103.6890 82° East 480 552 35,000  Level FlightAware ADS-B
Sun 04:38:43 PM 42.2150 -103.5950 83° East 480 552 35,000  Level FlightAware ADS-B
Sun 04:39:17 PM 42.2230 -103.5090 83° East 480 552 35,000  Level FlightAware ADS-B
Sun 04:39:53 PM 42.2310 -103.4180 83° East 480 552 35,000  Level FlightAware ADS-B
Sun 04:40:30 PM 42.2400 -103.3240 83° East 480 552 35,000  Level FlightAware ADS-B
Sun 04:41:06 PM 42.2480 -103.2330 83° East 480 552 35,000  Level FlightAware ADS-B
Sun 04:41:42 PM 42.2560 -103.1420 83° East 480 552 35,000  Level FlightAware ADS-B
Sun 04:42:12 PM 42.2611 -102.8150 83° East 477 549 35,000  Level Denver Center
Sun 04:43:14 PM 42.2722 -102.6444 85° East 478 550 35,000  Level Denver Center
Sun 04:44:16 PM 42.2867 -102.4467 84° East 476 548 35,000  Level Denver Center
Sun 04:45:18 PM 42.2967 -102.2775 85° East 475 547 35,000  Level Denver Center
Sun 04:46:20 PM 42.3100 -102.0803 85° East 473 544 35,000  Level Denver Center
Sun 04:47:22 PM 42.3200 -101.9136 85° East 468 539 35,000  Level Denver Center
Sun 04:48:24 PM 42.3306 -101.7347 85° East 466 536 35,000  Level Denver Center
Sun 04:49:26 PM 42.3422 -101.5378 85° East 470 541 35,000  Level Denver Center
Sun 04:50:28 PM 42.3517 -101.3703 86° East 467 537 35,000  Level Denver Center
Sun 04:51:30 PM 42.3631 -101.1731 85° East 469 540 35,000  Level Denver Center
Sun 04:52:32 PM 42.3711 -101.0064 86° East 464 534 35,000  Level Denver Center
Sun 04:53:34 PM 42.3808 -100.8092 86° East 470 541 35,000  Level Denver Center
Sun 04:54:36 PM 42.3897 -100.6375 86° East 475 547 35,000  Level Denver Center
Sun 04:55:38 PM 42.3983 -100.4697 86° East 469 540 35,000  Level Denver Center
Sun 04:56:40 PM 42.4081 -100.2733 86° East 468 539 35,000  Level Denver Center
Sun 04:57:42 PM 42.4153 -100.1022 87° East 473 544 35,000  Level Denver Center
Sun 04:58:44 PM 42.4239 -99.9069 87° East 468 539 35,000  Level Denver Center
Sun 04:59:46 PM 42.4311 -99.7367 87° East 469 540 35,000  Level Denver Center
Sun 05:00:33 PM 42.4381 -99.5950 86° East 472 543 35,000  Level Minneapolis Center
Sun 05:01:35 PM 42.4447 -99.4183 87° East 470 541 35,000  Level Minneapolis Center
Sun 05:02:37 PM 42.4517 -99.2406 87° East 471 542 35,000  Level Minneapolis Center
Sun 05:03:39 PM 42.4583 -99.0650 87° East 468 539 35,000  Level Minneapolis Center
Sun 05:04:41 PM 42.4639 -98.8883 87° East 469 540 35,000  Level Minneapolis Center
Sun 05:05:43 PM 42.4711 -98.6775 87° East 467 537 35,000  Level Minneapolis Center
Sun 05:06:45 PM 42.4808 -98.5019 86° East 467 537 35,000  Level Minneapolis Center
Sun 05:12:42 PM 42.5271 -97.4538 86° East 464 534 35,000  Level FlightAware ADS-B
Sun 05:13:46 PM 42.5340 -97.2740 87° East 463 533 35,000  Level FlightAware ADS-B
Sun 05:14:26 PM 42.5380 -97.1630 87° East 463 533 35,000  Level FlightAware ADS-B
Sun 05:15:04 PM 42.5430 -97.0400 87° East 464 534 35,000  Level FlightAware ADS-B
Sun 05:15:37 PM 42.5470 -96.9440 87° East 464 534 35,000  Level FlightAware ADS-B
Sun 05:16:13 PM 42.5500 -96.8430 88° East 465 535 35,000  Level FlightAware ADS-B
Sun 05:16:47 PM 42.5540 -96.7400 87° East 466 536 35,000  Level FlightAware ADS-B
Sun 05:17:22 PM 42.5570 -96.6390 88° East 466 536 35,000  Level FlightAware ADS-B
Sun 05:17:59 PM 42.5610 -96.5300 87° East 466 536 35,000  Level FlightAware ADS-B
Sun 05:18:34 PM 42.5640 -96.4290 88° East 466 536 35,000  Level FlightAware ADS-B
Sun 05:19:07 PM 42.5670 -96.3310 88° East 466 536 35,000  Level FlightAware ADS-B
Sun 05:19:43 PM 42.5700 -96.2270 88° East 466 536 35,000  Level FlightAware ADS-B
Sun 05:20:20 PM 42.5730 -96.1200 88° East 466 536 35,000  Level FlightAware ADS-B
Sun 05:20:51 PM 42.5760 -96.0290 87° East 466 536 35,000  Level FlightAware ADS-B
Sun 05:21:28 PM 42.5790 -95.9230 88° East 466 536 35,000  Level FlightAware ADS-B
Sun 05:22:04 PM 42.5810 -95.8190 88° East 467 537 35,000  Level FlightAware ADS-B
Sun 05:22:35 PM 42.5840 -95.7400 87° East 467 537 35,000  Level FlightAware ADS-B
Sun 05:23:10 PM 42.5860 -95.6230 89° East 466 536 35,000  Level FlightAware ADS-B
Sun 05:23:46 PM 42.5890 -95.5200 88° East 464 534 35,000  Level FlightAware ADS-B
Sun 05:24:22 PM 42.5910 -95.4140 88° East 462 532 35,000  Level FlightAware ADS-B
Sun 05:24:58 PM 42.5940 -95.3120 88° East 462 532 35,000  Level FlightAware ADS-B
Sun 05:25:34 PM 42.5960 -95.2080 88° East 461 531 35,000 87 Level FlightAware ADS-B
Sun 05:26:07 PM 42.5980 -95.1130 88° East 461 531 35,100 1,043 Climbing FlightAware ADS-B
Sun 05:26:43 PM 42.6000 -95.0090 88° East 452 520 36,200 1,800 Climbing FlightAware ADS-B
Sun 05:26:47 PM 42.6000 -94.9970 90° East 452 520 36,300 857 Climbing FlightAware ADS-B (LPVM)
Sun 05:27:18 PM 42.6020 -94.9090 88° East 454 522 36,700 677 Climbing FlightAware ADS-B
Sun 05:27:49 PM 42.6030 -94.8220 89° East 456 525 37,000 261 Climbing FlightAware ADS-B
Sun 05:28:27 PM 42.6050 -94.7160 88° East 455 524 37,000  Level FlightAware ADS-B
Sun 05:29:01 PM 42.6070 -94.6190 88° East 457 526 37,000  Level FlightAware ADS-B
Sun 05:29:38 PM 42.6080 -94.5090 89° East 461 531 37,000  Level FlightAware ADS-B
Sun 05:30:13 PM 42.6100 -94.4090 88° East 466 536 37,000  Level FlightAware ADS-B
Sun 05:30:38 PM 42.6099 -94.3904 90° East 467 537 37,000  Level FlightAware ADS-B (LPVM)
Sun 05:31:36 PM 42.6120 -94.1670 89° East 473 544 37,000  Level FlightAware ADS-B
Sun 05:32:16 PM 42.6131 -94.0553 89° East 475 547 37,000  Level FlightAware ADS-B (LPVM)
Sun 05:32:50 PM 42.6139 -93.9449 89° East 476 548 37,000  Level FlightAware ADS-B (LPVM)
Sun 05:33:21 PM 42.6150 -93.8510 89° East 477 549 37,000  Level FlightAware ADS-B
Sun 05:33:58 PM 42.6150 -93.7430 90° East 477 549 37,000  Level FlightAware ADS-B
Sun 05:34:30 PM 42.6160 -93.6470 89° East 476 548 37,000  Level FlightAware ADS-B
Sun 05:35:09 PM 42.6161 -93.5293 90° East 475 547 37,000  Level FlightAware ADS-B (LPVM)
Sun 05:35:41 PM 42.6160 -93.4350 90° East 475 547 37,000  Level FlightAware ADS-B
Sun 05:36:17 PM 42.6170 -93.3290 89° East 474 545 37,000  Level FlightAware ADS-B
Sun 05:36:48 PM 42.6170 -93.2370 90° East 472 543 37,000  Level FlightAware ADS-B
Sun 05:36:58 PM 42.6167 -93.2060 91° East 474 545 37,000  Level FlightAware ADS-B (LPVM)
Sun 05:37:36 PM 42.6170 -93.0970 90° East 471 542 37,000  Level FlightAware ADS-B
Sun 05:38:06 PM 42.6170 -93.0080 90° East 469 540 37,000  Level FlightAware ADS-B
Sun 05:38:44 PM 42.6160 -92.9020 91° East 469 540 37,000  Level FlightAware ADS-B
Sun 05:39:17 PM 42.6162 -92.8084 90° East 468 539 37,000  Level FlightAware ADS-B (LPVM)
Sun 05:39:48 PM 42.6160 -92.7090 90° East 469 540 37,000  Level FlightAware ADS-B
Sun 05:40:17 PM 42.6154 -92.6300 91° East 469 540 37,000  Level FlightAware ADS-B (LPVM)
Sun 05:40:53 PM 42.6148 -92.5140 90° East 469 540 37,000  Level FlightAware ADS-B (LPVM)
Sun 05:41:27 PM 42.6143 -92.4199 90° East 470 541 37,000  Level FlightAware ADS-B (LPVM)
Sun 05:41:58 PM 42.6137 -92.3288 90° East 471 542 37,000  Level FlightAware ADS-B (LPVM)
Sun 05:42:39 PM 42.6127 -92.2024 91° East 472 543 37,000  Level FlightAware ADS-B (LPVM)
Sun 05:43:20 PM 42.6119 -92.1214 91° East 474 545 37,000  Level FlightAware ADS-B (LPVM)
Sun 05:44:04 PM 42.6104 -91.9641 91° East 477 549 37,000  Level FlightAware ADS-B (LPVM)
Sun 05:44:35 PM 42.6094 -91.8742 91° East 479 551 37,000  Level FlightAware ADS-B (LPVM)
Sun 05:45:15 PM 42.6079 -91.7486 91° East 482 555 37,000  Level FlightAware ADS-B (LPVM)
Sun 05:45:52 PM 42.6065 -91.6402 91° East 484 557 37,000  Level FlightAware ADS-B (LPVM)
Sun 05:46:25 PM 42.6050 -91.5297 91° East 486 559 37,000  Level FlightAware ADS-B (LPVM)
Sun 05:47:00 PM 42.6040 -91.4350 91° East 487 560 37,000  Level FlightAware ADS-B
Sun 05:47:15 PM 42.6029 -91.3871 92° East 488 562 37,000  Level FlightAware ADS-B (LPVM)
Sun 05:47:56 PM 42.6008 -91.2606 91° East 489 563 37,000  Level FlightAware ADS-B (LPVM)
Sun 05:48:36 PM 42.5987 -91.1343 91° East 489 563 37,000  Level FlightAware ADS-B (LPVM)
Sun 05:49:16 PM 42.5965 -91.0154 91° East 488 562 37,000  Level FlightAware ADS-B (LPVM)
Sun 05:49:55 PM 42.5940 -90.8840 91° East 488 562 37,000  Level FlightAware ADS-B
Sun 05:49:58 PM 42.5936 -90.8686 92° East 488 562 37,000  Level FlightAware ADS-B (LPVM)
Sun 05:50:31 PM 42.5918 -90.7764 92° East 489 563 37,000  Level FlightAware ADS-B (LPVM)
Sun 05:51:06 PM 42.5890 -90.6670 92° East 489 563 37,000  Level FlightAware ADS-B
Sun 05:51:41 PM 42.5870 -90.5610 91° East 489 563 37,000  Level FlightAware ADS-B
Sun 05:52:14 PM 42.5850 -90.4600 92° East 489 563 37,000  Level FlightAware ADS-B
Sun 05:52:52 PM 42.5820 -90.3450 92° East 488 562 37,000  Level FlightAware ADS-B
Sun 05:53:25 PM 42.5790 -90.2440 92° East 488 562 37,000  Level FlightAware ADS-B
Sun 05:54:03 PM 42.5760 -90.1280 92° East 487 560 37,000  Level FlightAware ADS-B
Sun 05:54:33 PM 42.5740 -90.0370 92° East 487 560 37,000  Level FlightAware ADS-B
Sun 05:55:11 PM 42.5710 -89.9210 92° East 485 558 37,000  Level FlightAware ADS-B
Sun 05:55:47 PM 42.5680 -89.8110 92° East 482 555 37,000  Level FlightAware ADS-B
Sun 05:56:22 PM 42.5640 -89.7070 93° East 479 551 37,000  Level FlightAware ADS-B
Sun 05:56:55 PM 42.5610 -89.6080 92° East 476 548 37,000  Level FlightAware ADS-B
Sun 05:57:31 PM 42.5580 -89.5020 92° East 474 545 37,000  Level FlightAware ADS-B
Sun 05:58:08 PM 42.5540 -89.3910 93° East 474 545 37,000  Level FlightAware ADS-B
Sun 05:58:39 PM 42.5510 -89.3020 93° East 474 545 37,000  Level FlightAware ADS-B
Sun 05:59:16 PM 42.5480 -89.1910 92° East 475 547 37,000  Level FlightAware ADS-B
Sun 05:59:52 PM 42.5440 -89.0840 93° East 477 549 37,000  Level FlightAware ADS-B
Sun 06:00:27 PM 42.5400 -88.9790 93° East 479 551 37,000  Level FlightAware ADS-B
Sun 06:01:00 PM 42.5360 -88.8800 93° East 479 551 37,000  Level FlightAware ADS-B
Sun 06:01:36 PM 42.5320 -88.7730 93° East 478 550 37,000  Level FlightAware ADS-B
Sun 06:02:11 PM 42.5280 -88.6690 93° East 476 548 37,000  Level FlightAware ADS-B
Sun 06:02:44 PM 42.5240 -88.5700 93° East 475 547 37,000  Level FlightAware ADS-B
Sun 06:03:21 PM 42.5200 -88.4660 93° East 473 544 37,000  Level FlightAware ADS-B
Sun 06:03:57 PM 42.5160 -88.3550 93° East 471 542 37,000  Level FlightAware ADS-B
Sun 06:04:28 PM 42.5120 -88.2630 93° East 470 541 37,000  Level FlightAware ADS-B
Sun 06:05:05 PM 42.5070 -88.1590 94° East 469 540 37,000  Level FlightAware ADS-B
Sun 06:05:41 PM 42.5020 -88.0530 94° East 468 539 37,000  Level FlightAware ADS-B
Sun 06:06:13 PM 42.5000 -87.9610 92° East 471 542 37,000  Level FlightAware ADS-B
Sun 06:06:52 PM 42.5000 -87.8430 90° East 470 541 37,000  Level FlightAware ADS-B
Sun 06:07:22 PM 42.5000 -87.7570 90° East 469 540 37,000  Level FlightAware ADS-B
Sun 06:08:04 PM 42.5000 -87.6300 90° East 467 537 37,000  Level FlightAware ADS-B
Sun 06:08:44 PM 42.4990 -87.5160 91° East 460 529 37,000  Level FlightAware ADS-B
Sun 06:09:20 PM 42.4990 -87.4130 90° East 456 525 37,000  Level FlightAware ADS-B
Sun 06:09:52 PM 42.4980 -87.3230 91° East 456 525 37,000  Level FlightAware ADS-B
Sun 06:10:28 PM 42.4980 -87.2210 90° East 455 524 37,000  Level FlightAware ADS-B
Sun 06:11:05 PM 42.4970 -87.1160 91° East 455 524 37,000  Level FlightAware ADS-B
Sun 06:11:38 PM 42.4960 -87.0280 91° East 457 526 37,000  Level FlightAware ADS-B
Sun 06:12:13 PM 42.4950 -86.9220 91° East 458 527 37,000  Level FlightAware ADS-B
Sun 06:12:50 PM 42.4940 -86.8120 91° East 459 528 37,000  Level FlightAware ADS-B
Sun 06:13:24 PM 42.4930 -86.7140 91° East 460 529 37,000  Level FlightAware ADS-B
Sun 06:14:00 PM 42.4920 -86.6140 91° East 460 529 37,000  Level FlightAware ADS-B
Sun 06:14:34 PM 42.4910 -86.5150 91° East 457 526 37,000  Level FlightAware ADS-B
Sun 06:15:16 PM 42.4890 -86.3990 91° East 457 526 37,000  Level FlightAware ADS-B
Sun 06:15:50 PM 42.4880 -86.3030 91° East 456 525 37,000  Level FlightAware ADS-B
Sun 06:16:24 PM 42.4860 -86.2050 92° East 454 522 37,000  Level FlightAware ADS-B
Sun 06:17:01 PM 42.4850 -86.1000 91° East 452 520 37,000  Level FlightAware ADS-B
Sun 06:17:36 PM 42.4830 -85.9990 92° East 451 519 37,000  Level FlightAware ADS-B
Sun 06:18:10 PM 42.4820 -85.9100 91° East 449 517 37,000  Level FlightAware ADS-B
Sun 06:18:44 PM 42.4800 -85.8100 92° East 447 514 37,000  Level FlightAware ADS-B
Sun 06:19:21 PM 42.4780 -85.7090 92° East 446 513 37,000 82 Level FlightAware ADS-B
Sun 06:19:57 PM 42.4760 -85.6110 92° East 446 513 37,100 627 Climbing FlightAware ADS-B
Sun 06:20:28 PM 42.4740 -85.5180 92° East 447 514 37,700 870 Climbing FlightAware ADS-B
Sun 06:21:06 PM 42.4710 -85.4100 92° East 451 519 38,100 740 Climbing FlightAware ADS-B
Sun 06:21:41 PM 42.4690 -85.3160 92° East 454 522 38,600 794 Climbing FlightAware ADS-B
Sun 06:22:14 PM 42.4670 -85.2170 92° East 458 527 39,000 364 Climbing FlightAware ADS-B
Sun 06:22:47 PM 42.4650 -85.1240 92° East 462 532 39,000  Level FlightAware ADS-B
Sun 06:23:38 PM 42.4630 -85.0580 92° East 466 536 39,000  Level FlightAware ADS-B
Sun 06:24:13 PM 42.4580 -84.8780 92° East 468 539 39,000  Level FlightAware ADS-B
Sun 06:24:49 PM 42.4560 -84.7740 91° East 470 541 39,000  Level FlightAware ADS-B
Sun 06:25:24 PM 42.4520 -84.6650 93° East 472 543 39,000  Level FlightAware ADS-B
Sun 06:26:00 PM 42.4490 -84.5610 92° East 474 545 39,000  Level FlightAware ADS-B
Sun 06:26:36 PM 42.4460 -84.4500 92° East 476 548 39,000  Level FlightAware ADS-B
Sun 06:27:08 PM 42.4430 -84.3580 92° East 476 548 39,000  Level FlightAware ADS-B
Sun 06:27:44 PM 42.4400 -84.2480 92° East 477 549 39,000  Level FlightAware ADS-B
Sun 06:28:20 PM 42.4360 -84.1420 93° East 477 549 39,000  Level FlightAware ADS-B
Sun 06:28:56 PM 42.4330 -84.0370 92° East 477 549 39,000  Level FlightAware ADS-B
Sun 06:29:28 PM 42.4290 -83.9400 93° East 475 547 39,000  Level FlightAware ADS-B
Sun 06:30:04 PM 42.4250 -83.8330 93° East 473 544 39,000  Level FlightAware ADS-B
Sun 06:30:40 PM 42.4220 -83.7290 92° East 471 542 39,000  Level FlightAware ADS-B
Sun 06:31:16 PM 42.4180 -83.6220 93° East 471 542 39,000  Level FlightAware ADS-B
Sun 06:31:52 PM 42.4130 -83.5160 94° East 471 542 39,000  Level FlightAware ADS-B
Sun 06:32:24 PM 42.4100 -83.4230 92° East 472 543 39,000  Level FlightAware ADS-B
Sun 06:33:00 PM 42.4060 -83.3150 93° East 473 544 39,000  Level FlightAware ADS-B
Sun 06:33:36 PM 42.4010 -83.2100 94° East 474 545 39,000  Level FlightAware ADS-B
Sun 06:34:08 PM 42.3970 -83.1170 93° East 475 547 39,000  Level FlightAware ADS-B
Sun 06:34:46 PM 42.3920 -83.0030 93° East 475 547 39,000  Level FlightAware ADS-B
Sun 06:35:18 PM 42.3880 -82.9070 93° East 476 548 39,000  Level FlightAware ADS-B
Sun 06:35:54 PM 42.3840 -82.8040 93° East 477 549 39,000  Level FlightAware ADS-B
Sun 06:36:28 PM 42.3790 -82.6990 94° East 478 550 39,000  Level FlightAware ADS-B
Sun 06:37:06 PM 42.3740 -82.5860 93° East 482 555 39,000  Level FlightAware ADS-B
Sun 06:37:36 PM 42.3710 -82.4970 93° East 483 556 39,000  Level FlightAware ADS-B
Sun 06:38:13 PM 42.3670 -82.3880 93° East 484 557 39,000  Level FlightAware ADS-B
Sun 06:38:49 PM 42.3630 -82.2840 93° East 486 559 39,000  Level FlightAware ADS-B
Sun 06:39:24 PM 42.3580 -82.1680 93° East 488 562 39,000  Level FlightAware ADS-B
Sun 06:39:59 PM 42.3540 -82.0730 93° East 490 564 39,000  Level FlightAware ADS-B
Sun 06:40:38 PM 42.3490 -81.9690 94° East 489 563 39,000  Level FlightAware ADS-B
Sun 06:41:17 PM 42.3440 -81.8460 93° East 489 563 39,000  Level FlightAware ADS-B
Sun 06:41:52 PM 42.3390 -81.7470 94° East 488 562 39,000  Level FlightAware ADS-B
Sun 06:42:34 PM 42.3320 -81.5910 93° East 485 558 39,000  Level FlightAware ADS-B
Sun 06:43:10 PM 42.3270 -81.4810 93° East 482 555 39,000  Level FlightAware ADS-B
Sun 06:43:43 PM 42.3220 -81.3850 94° East 480 552 39,000  Level FlightAware ADS-B
Sun 06:44:17 PM 42.3170 -81.2820 94° East 476 548 39,000  Level FlightAware ADS-B
Sun 06:44:55 PM 42.3110 -81.1710 94° East 472 543 39,000  Level FlightAware ADS-B
Sun 06:45:31 PM 42.3060 -81.0660 94° East 471 542 39,000  Level FlightAware ADS-B
Sun 06:46:04 PM 42.3010 -80.9700 94° East 471 542 39,000  Level FlightAware ADS-B
Sun 06:46:36 PM 42.2960 -80.8740 94° East 472 543 39,000  Level FlightAware ADS-B
Sun 06:47:11 PM 42.2900 -80.7720 95° East 471 542 39,000  Level FlightAware ADS-B
Sun 06:47:50 PM 42.2840 -80.6590 94° East 471 542 39,000  Level FlightAware ADS-B
Sun 06:48:25 PM 42.2790 -80.5580 94° East 471 542 39,000  Level FlightAware ADS-B
Sun 06:48:57 PM 42.2730 -80.4620 95° East 472 543 39,000  Level FlightAware ADS-B
Sun 06:49:34 PM 42.2670 -80.3530 94° East 472 543 39,000  Level FlightAware ADS-B
Sun 06:50:08 PM 42.2610 -80.2540 95° East 473 544 39,000  Level FlightAware ADS-B
Sun 06:50:41 PM 42.2550 -80.1560 95° East 474 545 39,000  Level FlightAware ADS-B
Sun 06:51:20 PM 42.2490 -80.0460 94° East 474 545 39,000  Level FlightAware ADS-B
Sun 06:51:54 PM 42.2420 -79.9440 95° East 476 548 39,000  Level FlightAware ADS-B
Sun 06:52:27 PM 42.2360 -79.8430 95° East 483 556 39,000  Level FlightAware ADS-B
Sun 06:53:04 PM 42.2290 -79.7320 95° East 488 562 39,000  Level FlightAware ADS-B
Sun 06:53:39 PM 42.2220 -79.6260 95° East 491 565 39,000  Level FlightAware ADS-B
Sun 06:54:13 PM 42.2160 -79.5230 94° East 492 566 39,000  Level FlightAware ADS-B
Sun 06:54:48 PM 42.2080 -79.4140 96° East 492 566 39,000  Level FlightAware ADS-B
Sun 06:55:25 PM 42.2010 -79.3020 95° East 492 566 39,000  Level FlightAware ADS-B
Sun 06:56:00 PM 42.1940 -79.2030 95° East 493 567 39,000  Level FlightAware ADS-B
Sun 06:56:32 PM 42.1820 -79.1040 99° East 485 558 39,000  Level FlightAware ADS-B
Sun 06:57:09 PM 42.1580 -78.9970 107° East 480 552 39,000  Level FlightAware ADS-B
Sun 06:57:44 PM 42.1320 -78.8950 109° East 480 552 39,000  Level FlightAware ADS-B
Sun 06:58:18 PM 42.1100 -78.8060 108° East 480 552 39,000  Level FlightAware ADS-B
Sun 06:58:53 PM 42.0840 -78.7020 109° East 480 552 39,000  Level FlightAware ADS-B
Sun 06:59:28 PM 42.0600 -78.6070 109° East 479 551 39,000  Level FlightAware ADS-B
Sun 07:00:03 PM 42.0350 -78.5100 109° East 477 549 39,000  Level FlightAware ADS-B
Sun 07:00:39 PM 42.0070 -78.4030 109° East 476 548 39,000  Level FlightAware ADS-B
Sun 07:01:14 PM 41.9820 -78.3050 109° East 477 549 39,000  Level FlightAware ADS-B
Sun 07:01:48 PM 41.9590 -78.2120 108° East 477 549 39,000  Level FlightAware ADS-B
Sun 07:02:30 PM 41.9270 -78.0920 110° East 476 548 39,000  Level FlightAware ADS-B
Sun 07:03:04 PM 41.9030 -77.9980 109° East 475 547 39,000  Level FlightAware ADS-B
Sun 07:03:42 PM 41.8760 -77.8930 109° East 474 545 39,000  Level FlightAware ADS-B
Sun 07:04:18 PM 41.8500 -77.7930 109° East 474 545 39,000  Level FlightAware ADS-B
Sun 07:04:51 PM 41.8260 -77.7030 110° East 474 545 39,000  Level FlightAware ADS-B
Sun 07:05:28 PM 41.7980 -77.5980 110° East 474 545 39,000  Level FlightAware ADS-B
Sun 07:06:00 PM 41.7750 -77.5100 109° East 474 545 39,000  Level FlightAware ADS-B
Sun 07:06:34 PM 41.7500 -77.4170 110° East 474 545 39,000  Level FlightAware ADS-B
Sun 07:07:10 PM 41.7240 -77.3190 110° East 474 545 39,000  Level FlightAware ADS-B
Sun 07:07:46 PM 41.6970 -77.2180 110° East 473 544 39,000  Level FlightAware ADS-B
Sun 07:08:18 PM 41.6730 -77.1310 110° East 472 543 39,000  Level FlightAware ADS-B
Sun 07:08:58 PM 41.6440 -77.0240 110° East 472 543 39,000  Level FlightAware ADS-B
Sun 07:09:30 PM 41.6200 -76.9330 109° East 472 543 39,000  Level FlightAware ADS-B
Sun 07:10:14 PM 41.5890 -76.8220 110° East 471 542 39,000  Level FlightAware ADS-B
Sun 07:10:44 PM 41.5690 -76.7460 109° East 471 542 39,000  Level FlightAware ADS-B
Sun 07:11:19 PM 41.5400 -76.6440 111° Southeast 473 544 39,000  Level FlightAware ADS-B
Sun 07:11:54 PM 41.5130 -76.5430 110° East 472 543 39,000 -329 Level FlightAware ADS-B
Sun 07:12:32 PM 41.4830 -76.4370 111° Southeast 475 547 38,600 -1,029 Descending FlightAware ADS-B
Sun 07:13:04 PM 41.4610 -76.3560 110° East 481 554 37,800 -1,569 Descending FlightAware ADS-B
Sun 07:13:37 PM 41.4330 -76.2560 110° East 486 559 36,900 -1,440 Descending FlightAware ADS-B
Sun 07:14:19 PM 41.4010 -76.1410 110° East 489 563 36,000 -1,120 Descending FlightAware ADS-B
Sun 07:14:52 PM 41.3740 -76.0460 111° Southeast 487 560 35,500 -1,235 Descending FlightAware ADS-B
Sun 07:15:27 PM 41.3470 -75.9490 110° East 484 557 34,600 -2,435 Descending FlightAware ADS-B
Sun 07:16:01 PM 41.3190 -75.8510 111° Southeast 491 565 32,700 -3,296 Descending FlightAware ADS-B
Sun 07:16:38 PM 41.2900 -75.7480 111° Southeast 498 573 30,700 -3,342 Descending FlightAware ADS-B
Sun 07:17:20 PM 41.2530 -75.6310 113° Southeast 498 573 28,300 -3,385 Descending FlightAware ADS-B
Sun 07:17:56 PM 41.2200 -75.5290 113° Southeast 495 570 26,300 -2,952 Descending FlightAware ADS-B
Sun 07:18:23 PM 41.1960 -75.4590 114° Southeast 490 564 25,200 -2,625 Descending FlightAware ADS-B
Sun 07:19:00 PM 41.1620 -75.3560 114° Southeast 481 554 23,500 -1,941 Descending FlightAware ADS-B
Sun 07:19:31 PM 41.1360 -75.2820 115° Southeast 479 551 23,000 -441 Descending FlightAware ADS-B
Sun 07:20:08 PM 41.0990 -75.1710 114° Southeast 460 529 23,000  Level FlightAware ADS-B
Sun 07:20:39 PM 41.0750 -75.1010 114° Southeast 427 491 23,000  Level FlightAware ADS-B
Sun 07:21:17 PM 41.0470 -75.0190 114° Southeast 392 451 23,000  Level FlightAware ADS-B
Sun 07:21:52 PM 41.0200 -74.9400 114° Southeast 386 444 23,000 -417 Level FlightAware ADS-B
Sun 07:22:29 PM 40.9960 -74.8560 111° Southeast 388 447 22,500 -1,043 Descending FlightAware ADS-B
Sun 07:23:01 PM 40.9860 -74.7820 100° East 390 449 21,800 -1,164 Descending FlightAware ADS-B
Sun 07:23:36 PM 40.9770 -74.6990 98° East 385 443 21,200 -600 Descending FlightAware ADS-B
Sun 07:24:21 PM 40.9780 -74.5950 89° East 382 440 21,000 -158 Descending FlightAware ADS-B
Sun 07:24:52 PM 40.9910 -74.5210 77° East 384 442 21,000 -88 Level FlightAware ADS-B
Sun 07:25:29 PM 41.0050 -74.4370 78° East 382 440 20,900 -554 Descending FlightAware ADS-B
Sun 07:25:57 PM 41.0140 -74.3760 79° East 379 436 20,400 -1,263 Descending FlightAware ADS-B
Sun 07:26:26 PM 41.0090 -74.3090 96° East 369 425 19,700 -1,467 Descending FlightAware ADS-B
Sun 07:26:42 PM 40.9970 -74.2740 114° Southeast 360 414 19,300 -1,286 Descending FlightAware ADS-B
Sun 07:26:54 PM 40.9880 -74.2540 121° Southeast 354 407 19,100 -563 Descending FlightAware ADS-B
Sun 07:27:14 PM 40.9660 -74.2181 129° Southeast 353 406 19,000 -636 Descending FlightAware ADS-B
Sun 07:28:00 PM 40.9190 -74.1400 129° Southeast 351 404 18,400 -1,068 Descending FlightAware ADS-B
Sun 07:28:27 PM 40.8938 -74.0922 125° Southeast 351 404 17,700 -1,429 Descending FlightAware ADS-B
Sun 07:29:03 PM 40.8628 -74.0291 123° Southeast 341 392 16,900 -1,433 Descending FlightAware ADS-B
Sun 07:29:34 PM 40.8369 -73.9764 123° Southeast 338 389 16,100 -1,524 Descending FlightAware ADS-B
Sun 07:30:06 PM 40.8089 -73.9196 123° Southeast 336 387 15,300 -1,412 Descending FlightAware ADS-B
Sun 07:30:25 PM 40.7944 -73.8899 123° Southeast 328 377 14,900 -1,224 Descending FlightAware ADS-B (KSNC)
Sun 07:30:55 PM 40.7669 -73.8404 126° Southeast 319 367 14,300 -1,294 Descending FlightAware ADS-B
Sun 07:31:16 PM 40.7635 -73.8355 132° Southeast 314 361 13,800 -1,333 Descending FlightAware ADS-B (KSNC)
Sun 07:31:58 PM 40.7065 -73.7528 132° Southeast 310 357 12,900 -1,333 Descending FlightAware ADS-B (KSNC)
Sun 07:32:28 PM 40.6760 -73.7150 137° Southeast 302 348 12,200 -1,350 Descending FlightAware ADS-B
Sun 07:32:38 PM 40.6640 -73.7070 153° Southeast 293 337 12,000 -1,304 Descending FlightAware ADS-B
Sun 07:33:14 PM 40.6180 -73.6890 163° South 282 325 11,200 -1,594 Descending FlightAware ADS-B
Sun 07:33:42 PM 40.5820 -73.6770 166° South 273 314 10,300 -1,889 Descending FlightAware ADS-B
Sun 07:34:08 PM 40.5540 -73.6790 183° South 268 308 9,500 -2,087 Descending FlightAware ADS-B
Sun 07:34:28 PM 40.5310 -73.6830 188° South 266 306 8,700 -2,550 Descending FlightAware ADS-B
Sun 07:34:48 PM 40.5040 -73.6870 186° South 265 305 7,800 -2,520 Descending FlightAware ADS-B
Sun 07:35:18 PM 40.4670 -73.6930 187° South 262 302 6,600 -2,400 Descending FlightAware ADS-B
Sun 07:35:38 PM 40.4440 -73.6970 188° South 261 300 5,800 -1,667 Descending FlightAware ADS-B
Sun 07:35:54 PM 40.4250 -73.7000 187° South 248 285 5,600 -682 Descending FlightAware ADS-B
Sun 07:36:22 PM 40.3930 -73.7070 189° South 213 245 5,300 -750 Descending FlightAware ADS-B
Sun 07:36:42 PM 40.3740 -73.7100 187° South 199 229 5,000 -727 Descending FlightAware ADS-B
Sun 07:36:55 PM 40.3630 -73.7130 192° South 193 222 4,900 -900 Descending FlightAware ADS-B
Sun 07:37:02 PM 40.3570 -73.7140 187° South 190 219 4,700 -1,200 Descending FlightAware ADS-B
Sun 07:37:10 PM 40.3500 -73.7190 209° Southwest 190 219 4,600 -1,143 Descending FlightAware ADS-B
Sun 07:37:23 PM 40.3420 -73.7300 226° Southwest 190 219 4,300 -1,241 Descending FlightAware ADS-B
Sun 07:37:39 PM 40.3340 -73.7430 231° Southwest 191 220 4,000 -1,333 Descending FlightAware ADS-B
Sun 07:37:50 PM 40.3280 -73.7540 234° Southwest 195 224 3,700 -1,200 Descending FlightAware ADS-B
Sun 07:37:59 PM 40.3260 -73.7650 257° West 200 230 3,600 -1,000 Descending FlightAware ADS-B
Sun 07:38:26 PM 40.3280 -73.7990 274° West 203 234 3,100 -955 Descending FlightAware ADS-B
Sun 07:38:43 PM 40.3310 -73.8190 281° West 209 241 2,900 -643 Descending FlightAware ADS-B
Sun 07:38:54 PM 40.3350 -73.8320 292° West 210 242 2,800  Descending FlightAware ADS-B
Sun 07:39:15 PM 40.3430 -73.8570 293° West 209 241 2,900 -133 Climbing FlightAware ADS-B
Sun 07:39:39 PM 40.3510 -73.8850 291° West 206 237 2,700 -837 Descending FlightAware ADS-B
Sun 07:39:58 PM 40.3600 -73.9050 301° West 208 239 2,300 -1,091 Descending FlightAware ADS-B
Sun 07:40:12 PM 40.3700 -73.9150 323° Northwest 220 253 2,100 -1,091 Descending FlightAware ADS-B
Sun 07:40:20 PM 40.3800 -73.9170 351° North 220 253 1,900 -667 Descending FlightAware ADS-B
Sun 07:40:39 PM 40.3990 -73.9180 358° North 205 236 1,800  Descending FlightAware ADS-B
Sun 07:41:05 PM 40.4230 -73.9200 356° North 199 229 1,900 122 Climbing FlightAware ADS-B
Sun 07:41:28 PM 40.4420 -73.9120 18° North 191 220 1,900  Level FlightAware ADS-B
Sun 07:41:50 PM 40.4600 -73.9010 25° Northeast 195 224 1,900  Level FlightAware ADS-B
Sun 07:42:03 PM 40.4690 -73.8930 34° Northeast 194 223 1,900  Level FlightAware ADS-B
Sun 07:42:25 PM 40.4860 -73.8790 32° Northeast 194 223 1,900  Level FlightAware ADS-B
Sun 07:42:59 PM 40.5130 -73.8580 31° Northeast 193 222 1,900  Level FlightAware ADS-B
Sun 07:43:20 PM 40.5300 -73.8450 30° Northeast 195 224 1,900 -162 Level FlightAware ADS-B
Sun 07:43:36 PM 40.5420 -73.8360 30° Northeast 190 219 1,800 -667 Descending FlightAware ADS-B
Sun 07:43:56 PM 40.5560 -73.8240 33° Northeast 175 201 1,500 -1,000 Descending FlightAware ADS-B
Sun 07:44:12 PM 40.5660 -73.8160 31° Northeast 164 189 1,200 -833 Descending FlightAware ADS-B
Sun 07:44:32 PM 40.5780 -73.8070 30° Northeast 148 170 1,000 -789 Descending FlightAware ADS-B
Sun 07:44:50 PM 40.5890 -73.7990 29° Northeast 139 160 700 -750 Descending FlightAware ADS-B
Sun 07:45:12 PM 40.6010 -73.7890 32° Northeast 137 158 500 -714 Descending FlightAware ADS-B
Sun 07:45:32 PM 40.6122 -73.7807 29° Northeast 130 150 200 -900 Descending FlightAware ADS-B
Sun 07:46:16 PM 40.6340 -73.7630 32° Northeast 105 121 -273 Descending FlightAware ADS-B

Login

Don't have an account? Register now (free) for customized features, flight alerts, and more!